Time;durP1;ratioP1;P1;durP2;ratioP2;P2;SDS_P1;SDS_P2;PMS_P1;PMS_P2;Temp;Humidity;BMP_temperature;BMP_pressure;BME280_temperature;BME280_humidity;BME280_pressure;Samples;Min_cycle;Max_cycle;Signal;HPM_P1;HPM_P2
2021/08/13 00:01:16;;;;;;;10.25;3.62;;;;;;;13.25;87.08;99947.81;1684123;85;20988;-69
2021/08/13 00:03:43;;;;;;;7.85;4.25;;;;;;;13.23;87.24;99943.19;1684168;85;20873;-70
2021/08/13 00:06:09;;;;;;;7.83;3.70;;;;;;;13.24;87.43;99946.75;1684224;84;21056;-69
2021/08/13 00:08:35;;;;;;;11.10;3.52;;;;;;;13.24;87.54;99949.52;1684215;85;21583;-69
2021/08/13 00:11:02;;;;;;;8.93;3.50;;;;;;;13.27;87.60;99954.38;1684220;85;20925;-69
2021/08/13 00:13:30;;;;;;;7.22;3.70;;;;;;;13.25;87.60;99958.03;1685360;83;20957;-70
2021/08/13 00:15:57;;;;;;;8.68;3.58;;;;;;;13.25;87.65;99958.84;1705659;83;20952;-69
2021/08/13 00:18:26;;;;;;;5.62;3.72;;;;;;;13.25;87.72;99958.84;1684038;85;20963;-69
2021/08/13 00:20:54;;;;;;;7.62;3.60;;;;;;;13.24;87.77;99956.41;1684026;85;20976;-70
2021/08/13 00:23:20;;;;;;;9.55;3.72;;;;;;;13.22;87.77;99959.48;1684049;85;21052;-69
2021/08/13 00:25:48;;;;;;;11.63;3.70;;;;;;;13.19;87.81;99955.42;1684034;85;22269;-70
2021/08/13 00:28:14;;;;;;;9.50;4.22;;;;;;;13.15;87.92;99959.94;1684084;85;20965;-69
2021/08/13 00:30:41;;;;;;;6.40;3.67;;;;;;;13.13;88.48;99951.17;1684173;85;21916;-69
2021/08/13 00:33:08;;;;;;;8.40;4.30;;;;;;;13.17;88.93;99952.75;1683961;85;21681;-69
2021/08/13 00:35:34;;;;;;;8.03;4.28;;;;;;;13.21;89.09;99955.91;1683970;85;20992;-69
2021/08/13 00:38:01;;;;;;;13.50;4.50;;;;;;;13.25;89.13;99947.81;1689978;84;20895;-68
2021/08/13 00:40:28;;;;;;;11.15;4.50;;;;;;;13.30;89.42;99946.24;1691015;85;21002;-68
2021/08/13 00:42:55;;;;;;;6.33;4.12;;;;;;;13.35;89.42;99952.16;1690948;85;21024;-68
2021/08/13 00:45:21;;;;;;;8.20;4.30;;;;;;;13.38;89.34;99950.14;1691014;84;20964;-69
2021/08/13 00:47:59;;;;;;;11.73;4.55;;;;;;;13.38;89.34;99957.03;1690179;84;20899;-69
2021/08/13 00:50:27;;;;;;;9.50;4.58;;;;;;;13.37;89.22;99959.55;1680435;85;21529;-70
2021/08/13 00:52:56;;;;;;;10.23;4.20;;;;;;;13.35;89.55;99954.36;1691131;85;21482;-69
2021/08/13 00:55:23;;;;;;;6.72;3.77;;;;;;;13.37;89.62;99950.70;1690952;85;21115;-69
2021/08/13 00:58:01;;;;;;;14.85;5.60;;;;;;;13.36;89.58;99956.55;1690664;84;20860;-70
2021/08/13 01:00:45;;;;;;;11.35;4.25;;;;;;;13.34;89.52;99956.05;1683674;85;21037;-69
2021/08/13 01:03:12;;;;;;;12.88;4.45;;;;;;;13.32;89.61;99954.19;1715943;83;20955;-69
2021/08/13 01:05:42;;;;;;;7.50;3.55;;;;;;;13.30;89.62;99958.65;1691152;84;21407;-70
2021/08/13 01:08:10;;;;;;;6.70;4.12;;;;;;;13.29;89.67;99958.97;1691014;85;21145;-70
2021/08/13 01:11:00;;;;;;;6.20;4.10;;;;;;;13.26;89.54;99963.22;1691076;85;21426;-69
2021/08/13 01:13:53;;;;;;;8.48;4.22;;;;;;;13.23;89.46;99961.67;1691231;85;20930;-70
2021/08/13 01:16:24;;;;;;;9.80;4.17;;;;;;;13.18;89.75;99958.51;1691038;84;21538;-69
2021/08/13 01:19:07;;;;;;;10.30;4.40;;;;;;;13.15;89.74;99955.80;1696445;84;21604;-69
2021/08/13 01:21:59;;;;;;;14.93;4.15;;;;;;;13.11;89.80;99961.71;1691227;84;21110;-69
2021/08/13 01:24:31;;;;;;;10.15;4.40;;;;;;;13.11;90.41;99960.90;1690918;84;20895;-69
2021/08/13 01:27:09;;;;;;;7.95;4.62;;;;;;;13.12;90.66;99963.33;1691310;84;20934;-69
2021/08/13 01:29:55;;;;;;;13.03;4.65;;;;;;;13.15;90.55;99968.77;1690776;84;20982;-70
2021/08/13 01:32:40;;;;;;;9.40;4.37;;;;;;;13.15;90.37;99968.20;1691238;84;20960;-70
2021/08/13 01:35:34;;;;;;;8.53;4.17;;;;;;;13.12;90.15;99968.84;1691078;85;21751;-71
2021/08/13 01:38:24;;;;;;;12.07;4.53;;;;;;;13.10;90.15;99968.36;1685628;84;20936;-71
2021/08/13 01:40:54;;;;;;;14.78;4.72;;;;;;;13.11;90.44;99980.19;1681717;85;20933;-71
2021/08/13 01:43:23;;;;;;;12.30;4.00;;;;;;;13.12;90.41;99980.44;1684038;85;20917;-71
2021/08/13 01:45:53;;;;;;;7.33;3.90;;;;;;;13.09;90.23;99984.65;1684347;85;21013;-71
2021/08/13 01:48:23;;;;;;;8.20;4.90;;;;;;;13.05;90.15;99987.80;1683950;84;20921;-72
2021/08/13 01:50:52;;;;;;;9.65;4.33;;;;;;;13.00;90.45;99986.58;1683975;84;20901;-71
2021/08/13 01:53:21;;;;;;;11.28;4.00;;;;;;;13.01;90.64;99989.58;1684091;85;21410;-71
2021/08/13 01:55:52;;;;;;;19.02;4.60;;;;;;;12.98;90.20;99991.59;1683970;85;20945;-71
2021/08/13 01:58:20;;;;;;;17.20;4.85;;;;;;;12.92;89.87;99993.44;1684124;84;20937;-71
2021/08/13 02:00:52;;;;;;;9.08;4.35;;;;;;;12.84;90.09;99997.23;1684045;84;21443;-71
2021/08/13 02:03:18;;;;;;;12.00;4.58;;;;;;;12.79;90.30;99991.05;1684111;85;21037;-69
2021/08/13 02:05:46;;;;;;;7.80;4.40;;;;;;;12.71;90.72;99994.02;1692926;81;20897;-69
2021/08/13 02:08:14;;;;;;;12.58;4.90;;;;;;;12.69;90.93;99994.13;1696855;83;20921;-69
2021/08/13 02:10:44;;;;;;;7.47;4.50;;;;;;;12.65;90.88;100002.78;1684264;84;21428;-69
2021/08/13 02:13:15;;;;;;;9.50;4.53;;;;;;;12.61;91.44;100000.41;1684106;85;20952;-72
2021/08/13 02:15:49;;;;;;;10.10;4.10;;;;;;;12.58;91.49;100007.37;1683820;85;21000;-69
2021/08/13 02:18:23;;;;;;;10.82;4.17;;;;;;;12.54;91.51;100011.33;1684194;84;21487;-71
2021/08/13 02:20:55;;;;;;;10.38;3.90;;;;;;;12.48;91.39;100007.08;1683849;85;20925;-69
2021/08/13 02:23:23;;;;;;;;;;;;;;;12.44;91.48;100013.54;1686673;85;21586;-69
2021/08/13 02:25:53;;;;;;;9.15;3.80;;;;;;;12.39;91.38;100013.11;1683711;85;20415;-71
2021/08/13 02:28:20;;;;;;;9.55;4.10;;;;;;;12.32;91.40;100014.13;1684101;85;20901;-69
2021/08/13 02:30:49;;;;;;;9.43;4.58;;;;;;;12.27;91.49;100013.45;1683919;85;20905;-69
2021/08/13 02:33:17;;;;;;;9.50;4.62;;;;;;;12.22;91.85;100014.39;1658960;85;20961;-69
2021/08/13 02:35:46;;;;;;;13.22;4.05;;;;;;;12.23;92.56;100014.08;1683967;85;20996;-72
2021/08/13 02:38:18;;;;;;;13.22;3.95;;;;;;;12.26;92.86;100014.58;1688677;85;21141;-72
2021/08/13 02:40:57;;;;;;;6.45;3.90;;;;;;;12.29;93.12;100009.81;1690856;84;21017;-70
2021/08/13 02:43:39;;;;;;;7.00;3.47;;;;;;;12.32;93.14;100019.63;1691024;84;20974;-70
2021/08/13 02:46:06;;;;;;;8.05;3.95;;;;;;;12.33;93.14;100022.63;1692888;84;21017;-70
2021/08/13 02:48:36;;;;;;;8.40;4.00;;;;;;;12.34;93.12;100024.26;1691070;84;21597;-70
2021/08/13 02:51:04;;;;;;;11.85;4.42;;;;;;;12.34;93.09;100024.26;1691051;84;21442;-70
2021/08/13 02:53:43;;;;;;;10.63;4.33;;;;;;;12.34;93.60;100024.26;1673503;85;20942;-71
2021/08/13 02:56:10;;;;;;;7.28;3.58;;;;;;;12.37;93.77;100026.95;1710920;81;21022;-70
2021/08/13 02:58:52;;;;;;;14.87;4.05;;;;;;;12.40;93.78;100023.56;1725872;83;20967;-71
2021/08/13 03:01:25;;;;;;;12.23;4.53;;;;;;;12.39;93.59;100024.69;1725471;82;20898;-71
2021/08/13 03:03:52;;;;;;;10.13;4.33;;;;;;;12.41;94.40;100018.30;1707055;83;21093;-70
2021/08/13 03:06:22;;;;;;;13.93;5.33;;;;;;;12.48;94.86;100026.92;1725653;83;20882;-71
2021/08/13 03:08:50;;;;;;;8.68;4.58;;;;;;;12.53;95.01;100024.03;1707439;83;20940;-71
2021/08/13 03:11:18;;;;;;;8.03;4.28;;;;;;;12.58;95.18;100023.08;1725476;83;21524;-70
2021/08/13 03:13:47;;;;;;;7.90;4.15;;;;;;;12.64;95.51;100019.87;1725604;83;20926;-72
2021/08/13 03:16:15;;;;;;;9.33;3.98;;;;;;;12.71;95.40;100020.79;1725568;83;20953;-70
2021/08/13 03:18:44;;;;;;;7.03;4.00;;;;;;;12.74;95.31;100031.14;1725275;82;20918;-69
2021/08/13 03:21:13;;;;;;;11.55;4.10;;;;;;;12.77;95.34;100023.05;1731360;82;20846;-71
2021/08/13 03:23:40;;;;;;;8.15;4.40;;;;;;;12.83;95.41;100025.09;1682791;83;20934;-71
2021/08/13 03:26:08;;;;;;;13.58;4.08;;;;;;;12.88;95.32;100033.22;1725576;83;20957;-70
2021/08/13 03:28:35;;;;;;;8.13;4.30;;;;;;;12.91;95.37;100029.83;1725601;83;21135;-70
2021/08/13 03:31:03;;;;;;;7.78;4.42;;;;;;;12.95;95.29;100039.08;1725520;83;20996;-70
2021/08/13 03:33:33;;;;;;;7.97;4.42;;;;;;;12.98;95.27;100043.95;1725543;83;20886;-70
2021/08/13 03:36:06;;;;;;;10.98;4.80;;;;;;;13.02;95.29;100044.13;1730889;82;21794;-72
2021/08/13 03:38:34;;;;;;;;;;;;;;;13.05;95.22;100046.25;1704697;82;21021;-71
2021/08/13 03:41:02;;;;;;;6.83;4.00;;;;;;;13.11;95.33;100041.64;1692881;84;21121;-72
2021/08/13 03:43:31;;;;;;;12.10;4.55;;;;;;;13.17;95.27;100046.48;1689236;84;21076;-72
2021/08/13 03:45:57;;;;;;;9.30;4.55;;;;;;;13.21;95.03;100048.27;1692444;84;20998;-75
2021/08/13 03:48:26;;;;;;;12.00;5.33;;;;;;;13.28;94.84;100051.94;1695076;84;21534;-73
2021/08/13 03:50:52;;;;;;;13.32;6.62;;;;;;;13.37;94.66;100053.30;1693709;84;21004;-73
2021/08/13 03:53:20;;;;;;;15.80;6.45;;;;;;;13.43;94.30;100051.45;1692498;84;21119;-73
2021/08/13 03:55:46;;;;;;;12.25;4.90;;;;;;;13.49;94.00;100052.91;1675567;83;21583;-72
2021/08/13 03:58:13;;;;;;;8.50;5.35;;;;;;;13.54;93.82;100058.27;1658805;84;20947;-72
2021/08/13 04:00:40;;;;;;;8.23;5.50;;;;;;;13.60;93.69;100067.77;1670785;83;21046;-73
2021/08/13 04:03:08;;;;;;;11.20;5.85;;;;;;;13.66;93.58;100067.30;1673263;85;21001;-72
2021/08/13 04:05:34;;;;;;;13.83;5.05;;;;;;;13.73;93.29;100065.44;1652742;86;21785;-69
2021/08/13 04:08:02;;;;;;;11.63;5.60;;;;;;;13.79;93.17;100069.09;1652371;86;20889;-71
2021/08/13 04:10:28;;;;;;;10.93;6.22;;;;;;;13.86;92.81;100068.00;1652678;86;20910;-71
2021/08/13 04:12:55;;;;;;;9.53;5.67;;;;;;;13.94;92.57;100065.57;1652463;86;20998;-70
2021/08/13 04:15:23;;;;;;;11.40;6.00;;;;;;;14.02;92.12;100066.95;1651706;86;21016;-71
2021/08/13 04:17:51;;;;;;;10.78;6.05;;;;;;;14.09;92.22;100068.65;1650627;86;21208;-71
2021/08/13 04:20:20;;;;;;;26.68;6.10;;;;;;;14.17;92.28;100062.88;1650885;86;20911;-72
2021/08/13 04:22:49;;;;;;;15.20;5.28;;;;;;;14.26;92.25;100062.86;1650594;86;21024;-73
2021/08/13 04:25:15;;;;;;;11.85;4.90;;;;;;;14.34;91.81;100068.94;1650870;86;21108;-72
2021/08/13 04:27:42;;;;;;;12.30;5.17;;;;;;;14.41;91.53;100060.97;1650823;86;21295;-73
2021/08/13 04:30:13;;;;;;;10.78;5.20;;;;;;;14.48;91.22;100059.89;1651301;86;23281;-72
2021/08/13 04:32:40;;;;;;;8.80;5.25;;;;;;;14.55;90.79;100068.48;1652379;86;20910;-72
2021/08/13 04:35:10;;;;;;;9.60;5.60;;;;;;;14.63;90.24;100069.61;1635717;86;20938;-71
2021/08/13 04:37:38;;;;;;;10.32;5.28;;;;;;;14.69;89.70;100074.63;1683880;83;20974;-72
2021/08/13 04:40:07;;;;;;;10.00;5.33;;;;;;;14.75;89.52;100080.21;1679365;84;20998;-73
2021/08/13 04:42:37;;;;;;;8.95;5.08;;;;;;;14.84;89.22;100080.19;1688881;84;20927;-75
2021/08/13 04:45:06;;;;;;;9.28;5.62;;;;;;;14.92;89.43;100086.82;1653711;86;20974;-73
2021/08/13 04:47:33;;;;;;;14.53;5.12;;;;;;;14.99;89.23;100093.45;1653707;86;21000;-75
2021/08/13 04:50:00;;;;;;;11.18;5.00;;;;;;;15.05;88.19;100093.48;1652862;86;20956;-72
2021/08/13 04:52:28;;;;;;;10.80;5.28;;;;;;;15.10;87.70;100090.53;1652656;86;21034;-75
2021/08/13 04:54:55;;;;;;;12.43;4.97;;;;;;;15.19;88.07;100097.41;1652466;86;21147;-74
2021/08/13 04:57:21;;;;;;;9.80;5.10;;;;;;;15.31;88.00;100096.70;1652463;86;20935;-76
2021/08/13 04:59:48;;;;;;;10.40;5.50;;;;;;;15.43;87.48;100098.17;1652349;86;21129;-75
2021/08/13 05:02:22;;;;;;;9.85;5.00;;;;;;;15.50;86.33;100100.66;1652330;86;21055;-74
2021/08/13 05:04:59;;;;;;;8.33;5.30;;;;;;;15.55;86.31;100103.80;1652533;85;21502;-74
2021/08/13 05:07:29;;;;;;;9.50;4.75;;;;;;;15.63;86.16;100100.73;1653446;84;22064;-74
2021/08/13 05:09:56;;;;;;;8.50;4.58;;;;;;;15.69;85.67;100108.51;1653053;86;21081;-74
2021/08/13 05:12:23;;;;;;;16.85;4.35;;;;;;;15.78;85.76;100107.06;1678930;84;21011;-73
2021/08/13 05:14:50;;;;;;;11.80;4.58;;;;;;;15.89;86.16;100109.67;1705753;84;21034;-74
2021/08/13 05:17:17;;;;;;;9.35;4.53;;;;;;;16.00;84.96;100119.77;1705759;84;21002;-74
2021/08/13 05:19:45;;;;;;;7.85;4.40;;;;;;;16.07;84.42;100118.66;1705673;84;20971;-73
2021/08/13 05:22:13;;;;;;;6.45;4.50;;;;;;;16.15;84.64;100117.77;1705533;84;21508;-74
2021/08/13 05:24:41;;;;;;;9.03;4.35;;;;;;;16.25;83.67;100115.95;1705587;84;21509;-73
2021/08/13 05:27:07;;;;;;;8.33;3.90;;;;;;;16.35;83.33;100123.84;1705751;84;20999;-74
2021/08/13 05:29:36;;;;;;;10.50;4.00;;;;;;;16.46;82.72;100128.38;1705626;84;21495;-74
2021/08/13 05:32:06;;;;;;;8.35;4.33;;;;;;;16.55;82.25;100126.92;1705597;84;21104;-74
2021/08/13 05:34:33;;;;;;;10.18;3.55;;;;;;;16.62;82.17;100127.98;1705682;84;21030;-74
2021/08/13 05:37:01;;;;;;;5.83;3.52;;;;;;;16.73;82.84;100128.39;1702793;84;21446;-74
2021/08/13 05:39:30;;;;;;;7.35;3.85;;;;;;;16.89;82.65;100130.71;1697760;83;20950;-75
2021/08/13 05:41:57;;;;;;;6.53;3.72;;;;;;;17.01;80.63;100132.70;1697646;83;20958;-73
2021/08/13 05:44:23;;;;;;;7.45;3.62;;;;;;;17.12;81.07;100132.48;1697400;83;21503;-74
2021/08/13 05:46:51;;;;;;;12.60;4.53;;;;;;;17.24;79.45;100137.23;1696183;82;21031;-75
2021/08/13 05:49:18;;;;;;;10.98;3.92;;;;;;;17.34;79.12;100133.97;1701723;82;20942;-72
2021/08/13 05:51:45;;;;;;;8.00;3.47;;;;;;;17.44;78.70;100137.09;1698715;83;21568;-76
2021/08/13 05:54:13;;;;;;;7.50;3.65;;;;;;;17.53;78.05;100135.59;1702866;83;21010;-74
2021/08/13 05:56:41;;;;;;;5.90;4.05;;;;;;;17.62;78.04;100134.09;1697948;83;21142;-74
2021/08/13 05:59:07;;;;;;;10.10;3.42;;;;;;;17.70;76.63;100129.83;1696037;83;21579;-75
2021/08/13 06:01:35;;;;;;;6.20;3.40;;;;;;;17.79;76.28;100128.31;1698362;83;21045;-75
2021/08/13 06:04:14;;;;;;;4.65;3.35;;;;;;;17.88;75.90;100135.93;1698258;83;20985;-74
2021/08/13 06:06:43;;;;;;;6.67;3.45;;;;;;;17.97;76.04;100135.77;1695366;84;21500;-74
2021/08/13 06:09:10;;;;;;;14.07;4.87;;;;;;;18.06;75.65;100134.47;1693496;84;21994;-74
2021/08/13 06:11:38;;;;;;;6.83;3.40;;;;;;;18.16;76.03;100137.34;1695366;83;20968;-74
2021/08/13 06:14:05;;;;;;;6.50;3.60;;;;;;;18.28;75.76;100140.08;1696186;84;20932;-74
2021/08/13 06:16:34;;;;;;;5.50;3.52;;;;;;;18.41;75.15;100143.62;1690416;83;21012;-74
2021/08/13 06:19:01;;;;;;;7.87;3.83;;;;;;;18.50;74.26;100140.08;1686209;83;21029;-73
2021/08/13 06:21:30;;;;;;;6.50;3.47;;;;;;;18.59;74.57;100137.95;1688498;84;20913;-74
2021/08/13 06:23:59;;;;;;;4.53;3.00;;;;;;;18.71;74.58;100133.75;1685427;84;21056;-74
2021/08/13 06:26:26;;;;;;;6.90;3.45;;;;;;;18.88;74.79;100129.84;1684102;84;21560;-74
2021/08/13 06:28:54;;;;;;;15.63;4.08;;;;;;;19.02;73.58;100130.80;1688017;84;20886;-74
2021/08/13 06:31:21;;;;;;;7.37;3.42;;;;;;;19.16;73.12;100135.89;1686420;84;21016;-73
2021/08/13 06:33:51;;;;;;;8.30;3.05;;;;;;;19.26;73.68;100129.78;1683545;84;21537;-75
2021/08/13 06:36:18;;;;;;;6.92;3.00;;;;;;;19.41;73.47;100130.36;1686814;84;21226;-75
2021/08/13 06:38:45;;;;;;;9.03;3.83;;;;;;;19.55;72.84;100136.30;1708350;83;21404;-74
2021/08/13 06:41:12;;;;;;;6.80;3.72;;;;;;;19.64;71.92;100124.97;1732716;82;21494;-74
2021/08/13 06:43:40;;;;;;;6.25;3.25;;;;;;;19.71;70.35;100129.28;1740453;82;20939;-75
2021/08/13 06:46:06;;;;;;;5.87;3.77;;;;;;;19.78;71.74;100130.84;1725207;82;21016;-75
2021/08/13 06:48:34;;;;;;;6.92;2.90;;;;;;;19.87;70.20;100134.23;1710842;84;20952;-74
2021/08/13 06:51:01;;;;;;;7.47;3.40;;;;;;;19.95;69.96;100137.98;1711129;83;21513;-72
2021/08/13 06:53:29;;;;;;;6.00;3.20;;;;;;;20.07;71.13;100135.87;1711159;83;20990;-75
2021/08/13 06:55:56;;;;;;;6.83;3.17;;;;;;;20.21;69.12;100145.14;1710824;83;21093;-73
2021/08/13 06:58:22;;;;;;;8.00;3.25;;;;;;;20.24;67.17;100142.17;1711358;83;21500;-73
2021/08/13 07:00:49;;;;;;;16.50;3.45;;;;;;;20.28;68.13;100145.84;1707385;82;20996;-73
2021/08/13 07:03:16;;;;;;;8.78;3.45;;;;;;;20.34;68.30;100142.98;1659896;85;21569;-73
2021/08/13 07:05:43;;;;;;;7.35;3.22;;;;;;;20.46;69.30;100149.84;1683538;84;21489;-73
2021/08/13 07:08:11;;;;;;;11.97;3.47;;;;;;;20.64;68.16;100152.98;1686865;83;21039;-73
2021/08/13 07:10:39;;;;;;;23.98;4.70;;;;;;;20.80;68.02;100149.48;1678776;84;21152;-73
2021/08/13 07:13:07;;;;;;;10.18;3.27;;;;;;;20.95;66.29;100154.16;1673430;84;21555;-73
2021/08/13 07:15:34;;;;;;;6.45;3.17;;;;;;;21.03;66.09;100154.51;1669123;84;20971;-73
2021/08/13 07:18:00;;;;;;;14.40;3.67;;;;;;;21.14;65.83;100144.93;1673923;84;20998;-72
2021/08/13 07:20:30;;;;;;;9.28;3.12;;;;;;;21.28;65.74;100150.80;1667775;84;20970;-73
2021/08/13 07:23:00;;;;;;;5.78;3.20;;;;;;;21.43;64.38;100151.81;1669184;84;21058;-73
2021/08/13 07:25:26;;;;;;;12.07;3.20;;;;;;;21.53;62.76;100140.59;1697878;83;21075;-74
2021/08/13 07:27:54;;;;;;;5.50;3.10;;;;;;;21.62;63.10;100140.55;1666082;86;20995;-74
2021/08/13 07:30:21;;;;;;;5.60;3.42;;;;;;;21.77;61.50;100149.15;1683760;84;21020;-73
2021/08/13 07:32:48;;;;;;;6.33;3.60;;;;;;;21.86;61.84;100142.11;1670959;84;21093;-72
2021/08/13 07:35:15;;;;;;;7.15;3.35;;;;;;;21.92;60.25;100132.22;1687730;85;21526;-71
2021/08/13 07:37:44;;;;;;;7.00;3.35;;;;;;;21.98;60.23;100129.27;1669867;84;20951;-71
2021/08/13 07:40:11;;;;;;;4.47;3.00;;;;;;;22.02;60.34;100136.34;1668727;84;21059;-78
2021/08/13 07:42:40;;;;;;;5.67;3.00;;;;;;;22.03;60.78;100133.17;1687554;85;21828;-76
2021/08/13 07:45:08;;;;;;;6.95;3.37;;;;;;;22.04;60.32;100138.17;1668100;86;20955;-72
2021/08/13 07:47:36;;;;;;;7.67;3.72;;;;;;;22.08;60.14;100134.83;1635264;87;21179;-71
2021/08/13 07:50:03;;;;;;;4.92;2.87;;;;;;;22.08;60.08;100131.44;1635228;86;20934;-73
2021/08/13 07:52:31;;;;;;;4.83;3.05;;;;;;;22.11;58.26;100131.27;1635001;87;21001;-70
2021/08/13 07:54:58;;;;;;;6.10;3.10;;;;;;;22.16;59.82;100130.95;1635249;87;21069;-71
2021/08/13 07:57:26;;;;;;;13.22;3.42;;;;;;;22.29;57.15;100126.72;1635178;87;21016;-70
2021/08/13 07:59:54;;;;;;;5.95;3.00;;;;;;;22.47;57.94;100126.13;1635267;87;21164;-70
2021/08/13 08:02:22;;;;;;;4.65;2.77;;;;;;;22.83;56.61;100129.54;1606559;87;21064;-69
2021/08/13 08:04:48;;;;;;;5.00;3.08;;;;;;;23.27;57.29;100122.53;1634875;86;21015;-71
2021/08/13 08:07:15;;;;;;;9.03;3.27;;;;;;;23.59;54.82;100120.02;1681917;84;20978;-70
2021/08/13 08:09:41;;;;;;;5.15;2.95;;;;;;;23.88;53.71;100123.78;1658795;86;21003;-72
2021/08/13 08:12:08;;;;;;;5.22;3.27;;;;;;;24.15;52.26;100112.30;1688014;83;21103;-71
2021/08/13 08:14:35;;;;;;;7.67;3.25;;;;;;;24.49;50.90;100122.07;1658927;85;20911;-70
2021/08/13 08:17:02;;;;;;;4.75;3.05;;;;;;;24.84;50.47;100122.73;1688481;85;21050;-72
2021/08/13 08:19:28;;;;;;;5.22;2.67;;;;;;;25.25;47.69;100119.61;1659146;86;20955;-71
2021/08/13 08:21:54;;;;;;;6.75;2.87;;;;;;;25.47;48.41;100118.98;1686988;83;21109;-71
2021/08/13 08:24:21;;;;;;;4.00;2.90;;;;;;;25.46;46.99;100123.80;1654280;84;21162;-71
2021/08/13 08:26:47;;;;;;;5.92;2.72;;;;;;;25.51;46.49;100121.98;1637466;85;20967;-70
2021/08/13 08:29:13;;;;;;;4.53;2.80;;;;;;;25.50;46.47;100121.78;1654350;84;20972;-70
2021/08/13 08:31:40;;;;;;;4.87;3.30;;;;;;;25.65;45.91;100125.42;1666197;86;20978;-69
2021/08/13 08:34:06;;;;;;;5.55;3.25;;;;;;;25.84;46.50;100114.34;1663469;84;20950;-70
2021/08/13 08:36:34;;;;;;;7.70;3.45;;;;;;;26.06;45.23;100127.11;1669251;84;21172;-71
2021/08/13 08:39:01;;;;;;;4.12;2.83;;;;;;;26.16;45.65;100122.66;1669078;84;21677;-71
2021/08/13 08:41:27;;;;;;;5.95;3.30;;;;;;;26.23;45.20;100120.62;1678244;84;20911;-71
2021/08/13 08:43:54;;;;;;;6.42;3.30;;;;;;;26.35;44.23;100115.18;1668957;86;20889;-71
2021/08/13 08:46:21;;;;;;;6.03;2.80;;;;;;;26.52;42.73;100125.56;1638694;87;21513;-70
2021/08/13 08:48:52;;;;;;;5.08;2.92;;;;;;;26.70;43.94;100118.39;1685695;85;21177;-70
2021/08/13 08:51:19;;;;;;;;;;;;;;;26.99;44.14;100120.45;1671252;86;21531;-68
2021/08/13 08:53:52;;;;;;;19.65;3.40;;;;;;;27.23;42.79;100121.46;1685952;85;20087;-68
2021/08/13 08:56:20;;;;;;;15.32;3.20;;;;;;;27.36;43.00;100119.75;1665139;86;22236;-67
2021/08/13 08:58:46;;;;;;;4.80;3.52;;;;;;;27.52;41.01;100114.37;1637883;86;21522;-67
2021/08/13 09:01:14;;;;;;;10.08;3.40;;;;;;;27.51;42.82;100118.41;1681974;85;21127;-70
2021/08/13 09:03:43;;;;;;;7.60;3.10;;;;;;;27.67;43.29;100122.72;1654648;85;21019;-71
2021/08/13 09:06:11;;;;;;;3.65;2.58;;;;;;;27.93;42.14;100121.41;1657904;85;21047;-71
2021/08/13 09:08:38;;;;;;;6.20;2.85;;;;;;;27.90;39.60;100110.16;1658052;86;21332;-72
2021/08/13 09:11:04;;;;;;;3.87;2.40;;;;;;;27.83;39.66;100104.59;1638964;86;21488;-71
2021/08/13 09:13:35;;;;;;;4.90;2.75;;;;;;;27.89;41.88;100109.36;1628792;86;20960;-71
2021/08/13 09:16:13;;;;;;;12.23;3.08;;;;;;;28.00;38.64;100106.42;1633262;86;20967;-69
2021/08/13 09:18:45;;;;;;;11.65;3.27;;;;;;;28.08;40.44;100115.00;1638995;86;21035;-71
2021/08/13 09:21:21;;;;;;;8.40;2.83;;;;;;;28.18;40.03;100108.44;1694238;83;20914;-70
2021/08/13 09:23:49;;;;;;;4.83;2.47;;;;;;;28.39;40.28;100105.16;1692968;84;21030;-72
2021/08/13 09:26:22;;;;;;;4.00;2.37;;;;;;;28.62;39.07;100101.62;1692696;84;21168;-75
2021/08/13 09:29:07;;;;;;;3.55;2.67;;;;;;;28.76;37.98;100110.70;1693321;84;21621;-71
2021/08/13 09:31:52;;;;;;;6.37;2.90;;;;;;;28.88;36.67;100106.52;1693182;84;21027;-71
2021/08/13 09:34:30;;;;;;;5.10;2.40;;;;;;;28.91;37.61;100109.26;1689323;82;21062;-73
2021/08/13 09:36:57;;;;;;;6.55;2.90;;;;;;;28.61;37.89;100106.47;1679201;84;21525;-71
2021/08/13 09:39:28;;;;;;;4.42;2.52;;;;;;;27.92;38.15;100119.81;1664061;83;21157;-71
2021/08/13 09:41:58;;;;;;;5.12;2.15;;;;;;;27.58;39.62;100121.16;1677627;84;20959;-71
2021/08/13 09:44:38;;;;;;;3.98;2.33;;;;;;;27.68;39.39;100115.26;1688547;83;21458;-71
2021/08/13 09:47:11;;;;;;;4.03;2.30;;;;;;;27.98;40.05;100110.89;1683630;84;20903;-71
2021/08/13 09:49:48;;;;;;;9.90;2.70;;;;;;;28.36;38.89;100109.62;1657978;86;20987;-70
2021/08/13 09:52:17;;;;;;;4.42;2.83;;;;;;;28.51;38.90;100118.70;1637733;86;21112;-70
2021/08/13 09:54:46;;;;;;;4.47;2.37;;;;;;;28.35;37.47;100118.52;1638771;86;21500;-70
2021/08/13 09:57:16;;;;;;;7.70;4.37;;;;;;;28.08;38.50;100115.61;1638874;87;21033;-70
2021/08/13 10:00:01;;;;;;;5.85;2.52;;;;;;;27.96;38.93;100112.72;1627149;87;20959;-70
2021/08/13 10:02:35;;;;;;;3.92;2.40;;;;;;;28.15;38.87;100117.74;1658188;86;20845;-71
2021/08/13 10:05:24;;;;;;;5.28;2.77;;;;;;;28.58;38.48;100111.55;1636879;87;21168;-71
2021/08/13 10:07:55;;;;;;;6.12;2.45;;;;;;;28.89;36.49;100115.15;1700925;84;21626;-71
2021/08/13 10:10:42;;;;;;;2.52;2.20;;;;;;;28.93;36.25;100114.48;1677329;84;20952;-71
2021/08/13 10:13:11;;;;;;;4.00;2.47;;;;;;;28.84;36.12;100107.98;1688495;85;20963;-70
2021/08/13 10:15:44;;;;;;;8.68;2.75;;;;;;;28.78;38.00;100115.92;1611871;87;21040;-70
2021/08/13 10:18:15;;;;;;;;;;;;;;;29.09;36.47;100113.84;1643229;87;20888;-70
2021/08/13 10:20:47;;;;;;;5.37;2.30;;;;;;;29.47;36.11;100112.39;1688128;85;20123;-70
2021/08/13 10:23:15;;;;;;;27.50;3.33;;;;;;;29.78;35.79;100118.71;1659426;86;21039;-70
2021/08/13 10:25:43;;;;;;;11.97;3.20;;;;;;;29.96;35.62;100110.50;1688172;85;20923;-70
2021/08/13 10:28:12;;;;;;;3.77;2.58;;;;;;;30.07;35.41;100113.30;1659093;86;20923;-70
2021/08/13 10:30:41;;;;;;;3.50;2.40;;;;;;;30.13;34.89;100105.91;1688330;85;21178;-70
2021/08/13 10:33:09;;;;;;;5.17;2.75;;;;;;;30.14;35.59;100102.45;1660467;85;21653;-69
2021/08/13 10:35:56;;;;;;;3.72;2.33;;;;;;;30.17;34.49;100113.70;1692387;83;21002;-70
2021/08/13 10:38:25;;;;;;;3.90;3.02;;;;;;;30.42;35.42;100105.31;1642185;87;21014;-70
2021/08/13 10:40:52;;;;;;;4.47;2.33;;;;;;;30.59;32.65;100109.02;1681165;84;20924;-69
2021/08/13 10:43:23;;;;;;;4.67;2.37;;;;;;;30.34;32.72;100106.70;1675999;85;21176;-70
2021/08/13 10:45:52;;;;;;;3.85;2.50;;;;;;;30.19;34.02;100113.27;1675325;84;20970;-70
2021/08/13 10:48:24;;;;;;;3.30;2.40;;;;;;;30.19;34.26;100106.99;1657088;86;20920;-71
2021/08/13 10:51:01;;;;;;;6.05;2.70;;;;;;;30.21;32.92;100105.14;1645480;85;21055;-71
2021/08/13 10:53:35;;;;;;;3.42;2.27;;;;;;;30.22;33.66;100106.13;1674802;84;21048;-70
2021/08/13 10:56:10;;;;;;;3.75;2.20;;;;;;;30.13;33.99;100105.10;1698832;83;21203;-73
2021/08/13 10:58:44;;;;;;;3.12;2.42;;;;;;;30.09;34.23;100105.17;1706262;83;21033;-71
2021/08/13 11:01:21;;;;;;;6.92;2.45;;;;;;;30.08;33.66;100097.92;1666790;84;20939;-70
2021/08/13 11:03:59;;;;;;;5.10;2.58;;;;;;;29.77;33.50;100117.73;1675462;84;21037;-70
2021/08/13 11:06:41;;;;;;;6.55;2.42;;;;;;;29.65;34.09;100110.66;1653956;86;20952;-70
2021/08/13 11:09:14;;;;;;;5.10;2.50;;;;;;;29.73;34.81;100109.30;1657318;85;21106;-70
2021/08/13 11:11:56;;;;;;;2.95;2.42;;;;;;;29.96;32.39;100107.67;1638659;86;38288;-69
2021/08/13 11:14:30;;;;;;;3.30;2.27;;;;;;;29.85;33.54;100106.46;1639152;87;20876;-70
2021/08/13 11:16:57;;;;;;;5.05;2.50;;;;;;;29.92;33.17;100106.94;1658228;86;20935;-72
2021/08/13 11:19:25;;;;;;;4.10;2.40;;;;;;;29.88;33.24;100104.98;1658240;86;22541;-68
2021/08/13 11:21:59;;;;;;;7.50;2.65;;;;;;;29.96;35.20;100102.01;1629959;88;20916;-69
2021/08/13 11:24:52;;;;;;;3.42;2.30;;;;;;;30.26;33.25;100087.64;1638790;87;20880;-69
2021/08/13 11:27:20;;;;;;;7.25;2.90;;;;;;;30.37;33.82;100095.91;1647308;85;21497;-70
2021/08/13 11:29:49;;;;;;;6.78;2.85;;;;;;;30.48;32.80;100089.40;1680877;83;21086;-71
2021/08/13 11:32:37;;;;;;;3.22;2.30;;;;;;;30.57;32.81;100085.38;1687364;83;20915;-73
2021/08/13 11:35:10;;;;;;;3.95;2.08;;;;;;;30.70;33.14;100086.89;1650883;86;21136;-71
2021/08/13 11:37:45;;;;;;;7.62;2.58;;;;;;;30.63;33.41;100089.88;1631208;87;21015;-72